Portageville, New York
Current Conditions -  °F | °C
As of 2:54 AM on Monday 24 Nov 2014 (Local Time) from KDSV Reporting Station
Light Rain Light Rain  
Wind Chill: 52°   Ceiling: 7000
Heat Index: 52°   Visibility: 10mi
Dew Point: 48°   Wind: 15mph
Humidity: 86%   Direction: 170°S
Pressure: 29.44"   Gusts: 23mph
Location:  42.57°N, 78.04°W
Report Text: KDSV 240754Z AUTO 17013G20KT 10SM -RA BKN070 BKN085 OVC110 11/09 A2944 RMK AO2 SLP978 P0007 T01110089
Loading
Personal Weather Stations






























Interactive Weather Map New forecast layout! Learn more

10-Day Weather Forecast

Advertisements
Track Severe Weather on mobile